createdAt,value
2023-05-06T00:02:13.332Z,8.10
2023-05-06T00:04:40.895Z,8.14
2023-05-06T00:07:07.511Z,8.54
2023-05-06T00:09:34.608Z,8.39
2023-05-06T00:12:01.118Z,8.48
2023-05-06T00:14:27.691Z,9.19
2023-05-06T00:16:54.402Z,9.32
2023-05-06T00:19:20.945Z,9.03
2023-05-06T00:21:47.491Z,8.98
2023-05-06T00:24:14.155Z,9.13
2023-05-06T00:26:40.669Z,9.27
2023-05-06T00:29:07.231Z,9.13
2023-05-06T00:31:33.817Z,8.82
2023-05-06T00:34:00.373Z,8.60
2023-05-06T00:36:26.981Z,8.63
2023-05-06T00:38:53.683Z,8.67
2023-05-06T00:41:21.491Z,8.61
2023-05-06T00:43:48.042Z,9.33
2023-05-06T00:46:17.131Z,9.42
2023-05-06T00:48:45.159Z,10.31
2023-05-06T00:51:12.716Z,9.91
2023-05-06T00:53:39.957Z,9.60
2023-05-06T00:56:07.337Z,9.24
2023-05-06T00:58:34.950Z,9.34
2023-05-06T01:01:02.353Z,9.59
2023-05-06T01:03:28.974Z,9.35
2023-05-06T01:06:11.260Z,9.35
2023-05-06T01:08:51.333Z,9.63
2023-05-06T01:11:33.038Z,9.98
2023-05-06T01:14:15.192Z,10.60
2023-05-06T01:16:42.119Z,9.64
2023-05-06T01:19:29.938Z,9.75
2023-05-06T01:22:01.372Z,10.02
2023-05-06T01:24:43.085Z,10.50
2023-05-06T01:27:11.737Z,11.25
2023-05-06T01:29:42.129Z,11.06
2023-05-06T01:32:26.430Z,11.01
2023-05-06T01:35:00.417Z,10.73
2023-05-06T01:37:45.559Z,10.86
2023-05-06T01:40:14.358Z,10.75
2023-05-06T01:42:47.161Z,11.70
2023-05-06T01:45:16.863Z,11.03
2023-05-06T01:47:45.891Z,10.74
2023-05-06T01:50:13.851Z,11.33
2023-05-06T01:52:41.139Z,11.51
2023-05-06T01:55:08.377Z,11.46
2023-05-06T01:57:35.669Z,11.26
2023-05-06T02:00:02.228Z,11.69
2023-05-06T02:02:28.782Z,11.99
2023-05-06T02:04:55.327Z,11.92
2023-05-06T02:07:21.815Z,11.25
2023-05-06T02:09:48.347Z,10.84
2023-05-06T02:12:15.160Z,11.55
2023-05-06T02:14:41.637Z,11.52
2023-05-06T02:17:08.199Z,11.14
2023-05-06T02:19:34.772Z,11.24
2023-05-06T02:22:01.315Z,11.08
2023-05-06T02:24:27.937Z,10.76
2023-05-06T02:26:54.474Z,11.03
2023-05-06T02:29:20.999Z,11.34
2023-05-06T02:31:47.558Z,10.70
2023-05-06T02:34:14.159Z,10.91
2023-05-06T02:36:40.659Z,10.66
2023-05-06T02:39:07.323Z,11.41
2023-05-06T02:41:33.823Z,11.65
2023-05-06T02:44:00.583Z,11.30
2023-05-06T02:46:27.098Z,11.76
2023-05-06T02:48:53.648Z,12.11
2023-05-06T02:51:20.253Z,11.83
2023-05-06T02:53:46.832Z,11.51
2023-05-06T02:56:13.403Z,12.14
2023-05-06T02:58:39.968Z,11.84
2023-05-06T03:01:06.580Z,11.94
2023-05-06T03:03:33.439Z,11.48
2023-05-06T03:05:59.933Z,11.58
2023-05-06T03:08:26.479Z,11.48
2023-05-06T03:10:53.100Z,11.81
2023-05-06T03:13:20.008Z,11.56
2023-05-06T03:15:52.116Z,11.57
2023-05-06T03:18:18.686Z,11.42
2023-05-06T03:20:45.277Z,11.95
2023-05-06T03:23:11.796Z,12.17
2023-05-06T03:25:38.422Z,11.45
2023-05-06T03:28:05.177Z,11.60
2023-05-06T03:30:31.796Z,11.93
2023-05-06T03:33:01.125Z,11.62
2023-05-06T03:35:27.895Z,11.93
2023-05-06T03:37:54.665Z,11.83
2023-05-06T03:40:21.320Z,11.66
2023-05-06T03:42:47.844Z,11.88
2023-05-06T03:45:14.393Z,12.25
2023-05-06T03:47:40.966Z,11.98
2023-05-06T03:50:07.859Z,11.68
2023-05-06T03:52:34.499Z,11.70
2023-05-06T03:55:01.090Z,11.62
2023-05-06T03:57:27.612Z,12.39
2023-05-06T03:59:54.114Z,11.90
2023-05-06T04:02:20.681Z,11.46
2023-05-06T04:04:47.317Z,11.90
2023-05-06T04:07:13.956Z,11.75
2023-05-06T04:09:40.593Z,11.54
2023-05-06T04:12:07.360Z,12.51
2023-05-06T04:14:35.381Z,12.23
2023-05-06T04:17:01.890Z,12.09
2023-05-06T04:19:28.421Z,12.04
2023-05-06T04:21:54.965Z,12.01
2023-05-06T04:24:21.567Z,11.74
2023-05-06T04:26:48.251Z,12.35
2023-05-06T04:29:14.989Z,12.68
2023-05-06T04:31:41.556Z,12.58
2023-05-06T04:34:08.136Z,12.41
2023-05-06T04:36:35.028Z,12.55
2023-05-06T04:39:03.332Z,12.41
2023-05-06T04:41:30.987Z,12.36
2023-05-06T04:43:57.786Z,12.31
2023-05-06T04:46:24.463Z,11.98
2023-05-06T04:48:51.118Z,12.70
2023-05-06T04:51:17.687Z,12.23
2023-05-06T04:53:44.276Z,12.67
2023-05-06T04:56:10.856Z,12.16
2023-05-06T04:58:37.497Z,12.81
2023-05-06T05:01:08.663Z,12.36
2023-05-06T05:03:35.269Z,12.43
2023-05-06T05:06:01.848Z,12.60
2023-05-06T05:08:28.406Z,12.30
2023-05-06T05:10:54.964Z,12.70
2023-05-06T05:13:21.504Z,12.85
2023-05-06T05:15:48.213Z,13.13
2023-05-06T05:18:14.833Z,13.75
2023-05-06T05:20:41.450Z,13.11
2023-05-06T05:23:08.000Z,13.26
2023-05-06T05:25:35.620Z,12.89
2023-05-06T05:28:02.228Z,14.53
2023-05-06T05:30:28.826Z,13.30
2023-05-06T05:32:55.388Z,14.97
2023-05-06T05:35:22.121Z,16.98
2023-05-06T05:37:49.168Z,18.34
2023-05-06T05:40:15.696Z,18.40
2023-05-06T05:42:42.250Z,19.39
2023-05-06T05:45:09.167Z,19.39
2023-05-06T05:47:36.098Z,19.05
2023-05-06T05:50:02.805Z,19.66
2023-05-06T05:52:29.560Z,19.73
2023-05-06T05:54:56.240Z,20.05
2023-05-06T05:57:22.829Z,20.78
2023-05-06T05:59:49.445Z,20.38
2023-05-06T06:02:16.233Z,20.74
2023-05-06T06:04:42.923Z,20.33
2023-05-06T06:07:09.798Z,20.54
2023-05-06T06:09:36.564Z,20.15
2023-05-06T06:12:03.222Z,20.83
2023-05-06T06:14:29.773Z,20.58
2023-05-06T06:16:56.437Z,20.59
2023-05-06T06:19:22.956Z,20.38
2023-05-06T06:21:49.661Z,21.79
2023-05-06T06:24:16.290Z,20.81
2023-05-06T06:26:42.857Z,21.50
2023-05-06T06:29:09.469Z,21.50
2023-05-06T06:31:39.007Z,20.80
2023-05-06T06:34:08.860Z,21.74
2023-05-06T06:36:35.352Z,21.48
2023-05-06T06:39:02.359Z,21.56
2023-05-06T06:41:30.843Z,21.17
2023-05-06T06:43:57.389Z,20.48
2023-05-06T06:46:24.046Z,20.71
2023-05-06T06:48:50.652Z,21.20
2023-05-06T06:51:17.197Z,21.79
2023-05-06T06:53:43.901Z,21.54
2023-05-06T06:56:16.491Z,22.63
2023-05-06T06:58:43.048Z,21.49
2023-05-06T07:01:10.050Z,21.65
2023-05-06T07:03:36.845Z,21.41
2023-05-06T07:06:04.770Z,22.19
2023-05-06T07:08:31.371Z,21.64
2023-05-06T07:10:57.916Z,22.10
2023-05-06T07:13:24.611Z,22.43
2023-05-06T07:15:51.144Z,22.73
2023-05-06T07:18:17.764Z,21.97
2023-05-06T07:20:45.758Z,22.42
2023-05-06T07:23:12.265Z,21.87
2023-05-06T07:25:38.813Z,21.80
2023-05-06T07:28:05.710Z,21.31
2023-05-06T07:30:32.344Z,22.36
2023-05-06T07:32:58.923Z,22.50
2023-05-06T07:35:25.578Z,22.69
2023-05-06T07:37:52.541Z,22.52
2023-05-06T07:40:19.055Z,22.22
2023-05-06T07:42:46.878Z,22.59
2023-05-06T07:45:13.462Z,22.47
2023-05-06T07:47:40.208Z,22.53
2023-05-06T07:50:07.798Z,22.49
2023-05-06T07:52:34.592Z,22.72
2023-05-06T07:55:01.470Z,23.00
2023-05-06T07:57:28.109Z,22.70
2023-05-06T07:59:54.693Z,22.95
2023-05-06T08:02:21.340Z,22.18
2023-05-06T08:04:49.498Z,23.24
2023-05-06T08:07:17.569Z,22.21
2023-05-06T08:09:44.105Z,23.14
2023-05-06T08:12:10.686Z,22.85
2023-05-06T08:14:39.761Z,23.17
2023-05-06T08:17:06.350Z,22.44
2023-05-06T08:19:32.870Z,22.22
2023-05-06T08:21:59.436Z,22.57
2023-05-06T08:24:26.082Z,22.69
2023-05-06T08:26:52.790Z,22.70
2023-05-06T08:29:19.300Z,22.28
2023-05-06T08:31:46.064Z,22.95
2023-05-06T08:34:12.692Z,22.10
2023-05-06T08:36:39.292Z,22.44
2023-05-06T08:39:06.015Z,22.80
2023-05-06T08:41:35.688Z,23.11
2023-05-06T08:44:05.180Z,23.19
2023-05-06T08:46:32.077Z,23.45
2023-05-06T08:48:59.917Z,22.72
2023-05-06T08:51:30.172Z,22.48
2023-05-06T08:54:01.371Z,22.56
2023-05-06T08:56:32.655Z,23.06
2023-05-06T08:58:59.651Z,22.54
2023-05-06T09:01:28.095Z,21.71
2023-05-06T09:03:57.055Z,21.78
2023-05-06T09:06:25.016Z,21.42
2023-05-06T09:08:51.645Z,21.13
2023-05-06T09:11:23.994Z,21.04
2023-05-06T09:13:51.428Z,20.37
2023-05-06T09:16:28.602Z,20.94
2023-05-06T09:18:55.308Z,20.11
2023-05-06T09:21:22.076Z,19.59
2023-05-06T09:23:48.693Z,19.25
2023-05-06T09:26:15.892Z,20.06
2023-05-06T09:28:47.128Z,20.54
2023-05-06T09:31:17.140Z,19.61
2023-05-06T09:33:43.729Z,19.24
2023-05-06T09:36:13.372Z,18.70
2023-05-06T09:38:41.014Z,18.73
2023-05-06T09:41:08.641Z,18.81
2023-05-06T09:43:37.303Z,19.04
2023-05-06T09:46:06.019Z,17.77
2023-05-06T09:48:32.640Z,20.54
2023-05-06T09:51:01.160Z,19.35
2023-05-06T09:53:29.528Z,18.70
2023-05-06T09:55:58.406Z,19.11
2023-05-06T09:58:27.107Z,18.91
2023-05-06T10:00:55.748Z,18.82
2023-05-06T10:03:25.023Z,18.86
2023-05-06T10:05:54.881Z,18.86
2023-05-06T10:08:23.851Z,19.60
2023-05-06T10:10:51.228Z,19.32
2023-05-06T10:13:18.338Z,19.03
2023-05-06T10:15:48.081Z,19.84
2023-05-06T10:18:20.491Z,18.57
2023-05-06T10:20:49.043Z,17.56
2023-05-06T10:23:35.949Z,17.59
2023-05-06T10:26:11.836Z,15.98
2023-05-06T10:28:41.742Z,16.46
2023-05-06T10:31:12.931Z,16.65
2023-05-06T10:33:42.607Z,16.18
2023-05-06T10:36:26.030Z,16.60
2023-05-06T10:38:56.437Z,16.47
2023-05-06T10:41:27.884Z,16.80
2023-05-06T10:44:01.498Z,16.07
2023-05-06T10:46:29.664Z,15.86
2023-05-06T10:49:14.557Z,14.22
2023-05-06T10:51:49.247Z,12.97
2023-05-06T10:54:18.590Z,13.23
2023-05-06T10:56:48.097Z,14.68
2023-05-06T10:59:20.366Z,14.41
2023-05-06T11:01:56.243Z,14.61
2023-05-06T11:04:23.319Z,12.12
2023-05-06T11:06:54.012Z,10.49
2023-05-06T11:09:24.663Z,11.36
2023-05-06T11:12:04.311Z,10.82
2023-05-06T11:14:35.338Z,9.95
2023-05-06T11:17:07.641Z,9.77
2023-05-06T11:19:37.266Z,9.90
2023-05-06T11:22:06.553Z,10.43
2023-05-06T11:24:43.975Z,9.29
2023-05-06T11:27:11.129Z,8.37
2023-05-06T11:29:38.108Z,8.60
2023-05-06T11:32:23.439Z,9.78
2023-05-06T11:34:56.109Z,10.62
2023-05-06T11:37:29.814Z,11.19
2023-05-06T11:39:56.464Z,11.34
2023-05-06T11:42:27.688Z,12.09
2023-05-06T11:44:55.574Z,11.51
2023-05-06T11:47:23.718Z,11.63
2023-05-06T11:49:59.991Z,12.71
2023-05-06T11:52:26.660Z,13.48
2023-05-06T11:54:53.868Z,13.36
2023-05-06T11:57:20.782Z,12.23
2023-05-06T11:59:53.117Z,12.46
2023-05-06T12:02:20.615Z,12.96
2023-05-06T12:04:49.971Z,13.68
2023-05-06T12:07:17.019Z,13.90
2023-05-06T12:09:47.288Z,14.38
2023-05-06T12:12:21.695Z,11.83
2023-05-06T12:14:52.381Z,10.96
2023-05-06T12:17:19.534Z,14.18
2023-05-06T12:19:46.660Z,12.50
2023-05-06T12:22:27.016Z,11.20
2023-05-06T12:24:53.695Z,12.24
2023-05-06T12:27:36.068Z,12.83
2023-05-06T12:30:04.551Z,12.93
2023-05-06T12:32:31.470Z,13.21
2023-05-06T12:34:59.351Z,13.20
2023-05-06T12:37:29.115Z,12.35
2023-05-06T12:39:58.859Z,11.69
2023-05-06T12:42:26.386Z,11.80
2023-05-06T12:44:52.978Z,12.91
2023-05-06T12:47:25.113Z,12.15
2023-05-06T12:49:54.770Z,12.43
2023-05-06T12:52:28.415Z,11.96
2023-05-06T12:54:55.655Z,12.08
2023-05-06T12:57:22.855Z,12.99
2023-05-06T12:59:50.554Z,13.31
2023-05-06T13:02:17.396Z,14.67
2023-05-06T13:04:45.235Z,15.07
2023-05-06T13:07:12.061Z,15.19
2023-05-06T13:09:38.583Z,15.44
2023-05-06T13:12:06.171Z,15.66
2023-05-06T13:14:33.004Z,16.23
2023-05-06T13:17:01.523Z,16.39
2023-05-06T13:19:32.906Z,16.49
2023-05-06T13:22:00.754Z,16.32
2023-05-06T13:24:27.622Z,16.58
2023-05-06T13:26:56.049Z,17.04
2023-05-06T13:29:23.546Z,16.61
2023-05-06T13:31:50.905Z,16.52
2023-05-06T13:34:17.566Z,16.89
2023-05-06T13:36:44.171Z,17.47
2023-05-06T13:39:10.823Z,15.88
2023-05-06T13:41:37.411Z,13.37
2023-05-06T13:44:04.037Z,13.85
2023-05-06T13:46:31.345Z,14.42
2023-05-06T13:48:58.021Z,13.16
2023-05-06T13:51:27.495Z,12.64
2023-05-06T13:53:54.134Z,13.98
2023-05-06T13:56:21.434Z,13.81
2023-05-06T13:58:47.955Z,12.28
2023-05-06T14:01:14.955Z,9.87
2023-05-06T14:03:41.629Z,8.72
2023-05-06T14:06:08.556Z,8.46
2023-05-06T14:08:35.194Z,6.71
2023-05-06T14:11:01.830Z,6.47
2023-05-06T14:13:32.355Z,5.46
2023-05-06T14:16:00.227Z,5.63
2023-05-06T14:18:27.464Z,5.03
2023-05-06T14:20:54.352Z,5.18
2023-05-06T14:23:21.067Z,4.54
2023-05-06T14:25:47.770Z,4.82
2023-05-06T14:28:15.585Z,4.71
2023-05-06T14:30:42.534Z,4.57
2023-05-06T14:33:10.248Z,4.78
2023-05-06T14:35:41.780Z,5.14
2023-05-06T14:38:09.201Z,5.23
2023-05-06T14:40:36.809Z,4.11
2023-05-06T14:43:03.407Z,4.42
2023-05-06T14:45:29.978Z,3.73
2023-05-06T14:47:56.744Z,3.76
2023-05-06T14:50:23.309Z,4.38
2023-05-06T14:52:49.821Z,4.33
2023-05-06T14:55:16.927Z,3.90
2023-05-06T14:57:43.508Z,3.34
2023-05-06T15:00:14.620Z,3.33
2023-05-06T15:02:41.985Z,3.60
2023-05-06T15:05:13.067Z,3.98
2023-05-06T15:07:40.126Z,4.18
2023-05-06T15:10:07.040Z,4.10
2023-05-06T15:12:33.833Z,4.02
2023-05-06T15:15:00.463Z,3.38
2023-05-06T15:17:27.035Z,3.09
2023-05-06T15:19:53.851Z,3.79
2023-05-06T15:22:20.585Z,4.18
2023-05-06T15:24:47.115Z,4.97
2023-05-06T15:27:15.036Z,5.26
2023-05-06T15:29:41.521Z,4.43
2023-05-06T15:32:08.270Z,4.59
2023-05-06T15:34:35.015Z,4.46
2023-05-06T15:37:02.064Z,4.25
2023-05-06T15:39:28.627Z,4.39
2023-05-06T15:41:58.051Z,4.53
2023-05-06T15:44:26.869Z,4.33
2023-05-06T15:46:53.974Z,5.16
2023-05-06T15:49:47.329Z,5.34
2023-05-06T15:52:07.141Z,5.39
2023-05-06T15:54:37.435Z,4.28
2023-05-06T15:57:05.183Z,3.70
2023-05-06T15:59:33.351Z,4.36
2023-05-06T16:04:29.961Z,3.44
2023-05-06T16:06:57.600Z,4.13
2023-05-06T16:09:25.106Z,4.14
2023-05-06T16:11:51.677Z,3.71
2023-05-06T16:14:18.325Z,4.15
2023-05-06T16:16:44.866Z,4.43
2023-05-06T16:19:11.701Z,4.27
2023-05-06T16:21:38.301Z,4.41
2023-05-06T16:24:04.984Z,4.27
2023-05-06T16:26:31.648Z,4.57
2023-05-06T16:28:59.463Z,4.17
2023-05-06T16:31:26.473Z,3.91
2023-05-06T16:33:53.058Z,3.83
2023-05-06T16:36:19.670Z,3.60
2023-05-06T16:38:46.538Z,3.66
2023-05-06T16:41:13.028Z,3.54
2023-05-06T16:43:39.580Z,3.80
2023-05-06T16:46:06.426Z,4.05
2023-05-06T16:48:33.059Z,3.71
2023-05-06T16:50:59.617Z,3.69
2023-05-06T16:53:27.678Z,3.61
2023-05-06T16:55:56.128Z,3.47
2023-05-06T16:58:22.645Z,3.59
2023-05-06T17:00:51.647Z,3.39
2023-05-06T17:03:18.253Z,3.44
2023-05-06T17:05:44.823Z,3.60
2023-05-06T17:08:12.029Z,3.60
2023-05-06T17:10:39.007Z,3.78
2023-05-06T17:13:05.744Z,3.54
2023-05-06T17:15:32.342Z,3.44
2023-05-06T17:17:58.916Z,3.38
2023-05-06T17:20:25.569Z,3.38
2023-05-06T17:22:52.420Z,3.11
2023-05-06T17:25:19.004Z,3.10
2023-05-06T17:27:45.580Z,3.15
2023-05-06T17:30:12.977Z,2.95
2023-05-06T17:32:39.765Z,2.67
2023-05-06T17:35:07.411Z,2.99
2023-05-06T17:37:34.638Z,2.98
2023-05-06T17:40:05.106Z,2.92
2023-05-06T17:42:32.528Z,2.92
2023-05-06T17:44:59.391Z,3.13
2023-05-06T17:47:29.887Z,3.06
2023-05-06T17:49:56.795Z,2.88
2023-05-06T17:52:26.022Z,3.38
2023-05-06T17:55:10.665Z,3.35
2023-05-06T17:57:38.211Z,3.56
2023-05-06T18:00:05.541Z,3.58
2023-05-06T18:02:32.436Z,3.37
2023-05-06T18:04:59.269Z,3.14
2023-05-06T18:07:25.767Z,3.60
2023-05-06T18:09:52.461Z,4.06
2023-05-06T18:12:19.556Z,4.10
2023-05-06T18:14:46.690Z,4.74
2023-05-06T18:17:13.566Z,4.98
2023-05-06T18:19:40.364Z,5.35
2023-05-06T18:22:06.923Z,5.36
2023-05-06T18:24:34.572Z,5.76
2023-05-06T18:27:02.259Z,5.84
2023-05-06T18:29:30.265Z,6.66
2023-05-06T18:31:57.394Z,6.56
2023-05-06T18:34:24.024Z,7.14
2023-05-06T18:36:50.672Z,7.56
2023-05-06T18:39:17.215Z,7.42
2023-05-06T18:41:44.330Z,7.72
2023-05-06T18:44:10.925Z,8.36
2023-05-06T18:46:37.472Z,8.99
2023-05-06T18:49:04.000Z,8.49
2023-05-06T18:51:31.901Z,8.88
2023-05-06T18:53:58.510Z,8.02
2023-05-06T18:56:25.307Z,8.47
2023-05-06T18:58:52.144Z,8.55
2023-05-06T19:01:18.727Z,8.81
2023-05-06T19:03:45.393Z,9.31
2023-05-06T19:06:12.400Z,9.56
2023-05-06T19:08:39.034Z,10.08
2023-05-06T19:11:05.783Z,10.26
2023-05-06T19:13:32.422Z,9.58
2023-05-06T19:15:58.995Z,10.34
2023-05-06T19:18:25.578Z,10.21
2023-05-06T19:20:52.866Z,9.67
2023-05-06T19:23:20.160Z,10.02
2023-05-06T19:25:46.834Z,10.25
2023-05-06T19:28:13.381Z,10.40
2023-05-06T19:30:40.016Z,9.89
2023-05-06T19:33:06.742Z,9.74
2023-05-06T19:35:33.415Z,10.40
2023-05-06T19:38:00.096Z,10.19
2023-05-06T19:40:26.730Z,10.09
2023-05-06T19:42:53.816Z,10.24
2023-05-06T19:45:20.563Z,9.82
2023-05-06T19:47:47.137Z,10.10
2023-05-06T19:50:13.703Z,10.31
2023-05-06T19:52:40.499Z,10.32
2023-05-06T19:55:09.483Z,10.38
2023-05-06T19:57:37.300Z,10.52
2023-05-06T20:00:09.802Z,10.40
2023-05-06T20:02:40.062Z,11.64
2023-05-06T20:05:06.871Z,11.55
2023-05-06T20:07:33.741Z,12.10
2023-05-06T20:10:00.461Z,12.92
2023-05-06T20:12:27.634Z,12.41
2023-05-06T20:14:54.884Z,13.27
2023-05-06T20:17:21.866Z,13.54
2023-05-06T20:19:49.426Z,13.28
2023-05-06T20:22:16.316Z,13.51
2023-05-06T20:24:44.432Z,13.19
2023-05-06T20:27:10.960Z,14.01
2023-05-06T20:29:37.512Z,14.12
2023-05-06T20:32:04.339Z,14.41
2023-05-06T20:34:31.337Z,15.31
2023-05-06T20:36:58.155Z,16.22
2023-05-06T20:39:24.762Z,17.36
2023-05-06T20:41:51.293Z,16.58
2023-05-06T20:44:17.874Z,16.01
2023-05-06T20:46:44.417Z,15.64
2023-05-06T20:49:11.707Z,16.55
2023-05-06T20:51:38.247Z,16.88
2023-05-06T20:54:04.794Z,17.58
2023-05-06T20:56:31.386Z,17.28
2023-05-06T20:58:57.957Z,17.34
2023-05-06T21:01:25.561Z,17.21
2023-05-06T21:03:52.843Z,17.52
2023-05-06T21:06:19.677Z,18.71
2023-05-06T21:08:46.948Z,18.17
2023-05-06T21:11:13.780Z,17.68
2023-05-06T21:13:41.526Z,18.31
2023-05-06T21:16:08.236Z,19.02
2023-05-06T21:18:35.060Z,18.99
2023-05-06T21:21:01.745Z,19.00
2023-05-06T21:23:28.252Z,18.63
2023-05-06T21:25:54.896Z,18.46
2023-05-06T21:28:21.438Z,18.17
2023-05-06T21:30:48.093Z,18.37
2023-05-06T21:33:14.681Z,18.80
2023-05-06T21:35:41.194Z,18.28
2023-05-06T21:38:07.756Z,18.45
2023-05-06T21:40:34.296Z,17.90
2023-05-06T21:43:00.980Z,17.04
2023-05-06T21:45:27.594Z,17.09
2023-05-06T21:47:54.230Z,16.28
2023-05-06T21:50:20.882Z,15.29
2023-05-06T21:52:47.480Z,14.36
2023-05-06T21:55:14.107Z,13.43
2023-05-06T21:57:40.732Z,13.54
2023-05-06T22:00:11.807Z,13.53
2023-05-06T22:02:39.578Z,14.22
2023-05-06T22:05:07.303Z,13.93
2023-05-06T22:07:33.906Z,13.63
2023-05-06T22:10:00.502Z,13.84
2023-05-06T22:12:28.576Z,13.79
2023-05-06T22:14:55.229Z,14.51
2023-05-06T22:17:22.217Z,14.48
2023-05-06T22:19:48.990Z,13.89
2023-05-06T22:22:16.151Z,13.21
2023-05-06T22:24:42.904Z,13.39
2023-05-06T22:27:09.456Z,12.72
2023-05-06T22:29:36.165Z,12.26
2023-05-06T22:32:03.196Z,12.24
2023-05-06T22:34:30.021Z,12.51
2023-05-06T22:36:58.390Z,13.05
2023-05-06T22:39:27.155Z,12.41
2023-05-06T22:41:53.758Z,12.51
2023-05-06T22:44:20.996Z,12.48
2023-05-06T22:46:47.665Z,11.72
2023-05-06T22:49:15.898Z,11.83
2023-05-06T22:51:42.688Z,12.19
2023-05-06T22:54:09.298Z,12.51
2023-05-06T22:56:36.073Z,11.96
2023-05-06T22:59:02.885Z,11.24
2023-05-06T23:01:32.201Z,11.48
2023-05-06T23:03:59.422Z,11.99
2023-05-06T23:06:27.913Z,10.95
2023-05-06T23:08:54.464Z,10.58
2023-05-06T23:11:21.179Z,10.47
2023-05-06T23:13:48.003Z,10.61
2023-05-06T23:16:17.633Z,10.13
2023-05-06T23:18:45.811Z,10.07
2023-05-06T23:21:12.523Z,10.12
2023-05-06T23:23:39.184Z,9.83
2023-05-06T23:26:05.783Z,9.89
2023-05-06T23:28:32.366Z,9.12
2023-05-06T23:30:59.049Z,9.47
2023-05-06T23:33:25.730Z,9.46
2023-05-06T23:35:52.238Z,9.46
2023-05-06T23:38:18.926Z,9.08
2023-05-06T23:40:45.456Z,9.34
2023-05-06T23:43:13.210Z,9.10
2023-05-06T23:45:39.754Z,9.50
2023-05-06T23:48:06.477Z,8.99
2023-05-06T23:50:33.121Z,8.66
2023-05-06T23:52:59.722Z,8.86
2023-05-06T23:55:26.594Z,8.52
2023-05-06T23:57:53.264Z,8.83
